Time;durP1;ratioP1;P1;durP2;ratioP2;P2;SDS_P1;SDS_P2;PMS_P1;PMS_P2;Temp;Humidity;BMP_temperature;BMP_pressure;BME280_temperature;BME280_humidity;BME280_pressure;Samples;Min_cycle;Max_cycle;Signal;HPM_P1;HPM_P2
2022/03/14 00:01:05;;;;;;;14.05;2.13;;;30.90;11.00;;;;;;5094518;28;20076;-64
2022/03/14 00:03:38;;;;;;;10.80;2.30;;;30.80;10.90;;;;;;5102128;28;20075;-66
2022/03/14 00:06:05;;;;;;;12.32;1.98;;;30.70;11.20;;;;;;5085880;28;20154;-64
2022/03/14 00:08:31;;;;;;;16.85;2.63;;;30.70;11.30;;;;;;5095010;28;20098;-65
2022/03/14 00:10:58;;;;;;;13.68;2.47;;;30.40;11.60;;;;;;5080861;28;20499;-65
2022/03/14 00:13:26;;;;;;;11.48;2.40;;;30.50;11.50;;;;;;5085813;28;20404;-62
2022/03/14 00:15:53;;;;;;;10.70;2.22;;;30.60;11.50;;;;;;5068774;28;20079;-63
2022/03/14 00:18:20;;;;;;;6.63;2.00;;;30.50;11.80;;;;;;5083053;28;20076;-64
2022/03/14 00:20:48;;;;;;;15.85;2.47;;;30.50;11.60;;;;;;5082609;28;20133;-63
2022/03/14 00:23:17;;;;;;;14.73;1.95;;;30.30;11.80;;;;;;5082850;28;20129;-63
2022/03/14 00:25:43;;;;;;;14.40;2.47;;;30.10;11.90;;;;;;5081614;28;20112;-67
2022/03/14 00:28:11;;;;;;;8.73;2.15;;;30.00;12.20;;;;;;5084224;28;20084;-65
2022/03/14 00:30:37;;;;;;;9.82;2.45;;;29.80;12.40;;;;;;5084576;28;20076;-64
2022/03/14 00:33:04;;;;;;;15.38;2.38;;;29.80;12.50;;;;;;5081675;28;20071;-64
2022/03/14 00:35:30;;;;;;;8.85;1.90;;;29.80;12.80;;;;;;5067887;28;20158;-63
2022/03/14 00:37:57;;;;;;;9.82;2.10;;;29.70;12.60;;;;;;5083494;28;20537;-64
2022/03/14 00:40:23;;;;;;;61.22;3.85;;;29.50;12.70;;;;;;5067271;28;20125;-67
2022/03/14 00:42:50;;;;;;;9.63;2.35;;;29.40;12.90;;;;;;5070678;28;20521;-66
2022/03/14 00:45:16;;;;;;;10.32;2.13;;;29.40;13.00;;;;;;5082312;28;20071;-62
2022/03/14 00:47:43;;;;;;;8.00;1.90;;;29.20;13.20;;;;;;5078845;28;20084;-68
2022/03/14 00:50:09;;;;;;;10.90;2.03;;;29.00;13.10;;;;;;5082640;28;20083;-62
2022/03/14 00:52:36;;;;;;;14.05;2.47;;;28.90;13.10;;;;;;5087334;28;20148;-64
2022/03/14 00:55:02;;;;;;;12.35;2.40;;;28.90;13.20;;;;;;5089553;28;20514;-64
2022/03/14 00:57:29;;;;;;;13.80;2.10;;;28.80;13.30;;;;;;5081744;28;20603;-66
2022/03/14 00:59:56;;;;;;;30.38;2.92;;;28.70;13.40;;;;;;5084186;28;20071;-64
2022/03/14 01:02:23;;;;;;;13.60;2.45;;;28.60;13.60;;;;;;5083817;28;20094;-63
2022/03/14 01:04:50;;;;;;;29.77;2.70;;;28.50;13.80;;;;;;5084596;28;20067;-67
2022/03/14 01:07:16;;;;;;;14.60;2.22;;;28.40;13.70;;;;;;5080032;28;20096;-66
2022/03/14 01:09:43;;;;;;;15.27;2.15;;;28.30;13.80;;;;;;5089965;28;20171;-65
2022/03/14 01:12:09;;;;;;;12.05;2.03;;;28.30;13.90;;;;;;5091236;28;20095;-66
2022/03/14 01:14:36;;;;;;;16.20;2.78;;;28.20;13.90;;;;;;5088383;28;20068;-65
2022/03/14 01:17:03;;;;;;;27.50;2.92;;;28.10;13.90;;;;;;5087736;28;20700;-68
2022/03/14 01:19:29;;;;;;;18.73;2.67;;;28.00;14.10;;;;;;5089910;28;20552;-65
2022/03/14 01:21:55;;;;;;;25.98;3.00;;;27.90;14.20;;;;;;5093835;28;20090;-65
2022/03/14 01:24:24;;;;;;;18.20;2.67;;;27.80;14.30;;;;;;5086432;28;20190;-66
2022/03/14 01:26:52;;;;;;;11.73;2.88;;;27.70;14.40;;;;;;5088552;28;20068;-64
2022/03/14 01:29:18;;;;;;;13.52;2.83;;;27.60;14.40;;;;;;5076866;28;20082;-67
2022/03/14 01:31:45;;;;;;;9.65;2.05;;;27.40;14.20;;;;;;5088427;28;20067;-65
2022/03/14 01:34:13;;;;;;;17.83;2.20;;;27.40;14.20;;;;;;5086288;28;20280;-65
2022/03/14 01:36:40;;;;;;;10.10;2.05;;;27.30;14.30;;;;;;5089773;28;20115;-66
2022/03/14 01:39:06;;;;;;;17.17;2.45;;;27.10;14.30;;;;;;5090977;27;20114;-69
2022/03/14 01:41:32;;;;;;;11.02;2.40;;;27.00;14.30;;;;;;5089396;28;20446;-65
2022/03/14 01:44:00;;;;;;;11.43;2.15;;;27.00;14.30;;;;;;5095235;28;20079;-67
2022/03/14 01:46:27;;;;;;;10.15;2.30;;;26.90;14.30;;;;;;5087067;28;20067;-64
2022/03/14 01:48:53;;;;;;;11.13;2.90;;;26.80;14.40;;;;;;5094818;28;20120;-68
2022/03/14 01:51:22;;;;;;;12.93;2.10;;;26.70;14.40;;;;;;5091669;28;20065;-66
2022/03/14 01:53:49;;;;;;;13.93;2.13;;;26.60;14.40;;;;;;5091282;28;20076;-69
2022/03/14 01:56:15;;;;;;;9.75;1.60;;;26.50;14.50;;;;;;5090645;28;20099;-66
2022/03/14 01:58:42;;;;;;;11.45;2.03;;;26.50;14.60;;;;;;5075311;28;20080;-65
2022/03/14 02:01:09;;;;;;;17.58;2.72;;;26.30;14.60;;;;;;5059177;28;20092;-67
2022/03/14 02:03:35;;;;;;;10.18;1.90;;;26.30;14.80;;;;;;5089759;28;20136;-66
2022/03/14 02:06:01;;;;;;;11.02;2.10;;;26.20;14.80;;;;;;5090423;28;20077;-65
2022/03/14 02:08:28;;;;;;;13.45;2.65;;;26.10;14.90;;;;;;5085468;28;20099;-65
2022/03/14 02:10:54;;;;;;;12.63;2.50;;;26.00;15.00;;;;;;5090208;28;20133;-65
2022/03/14 02:13:22;;;;;;;11.38;2.20;;;25.90;15.00;;;;;;5091515;28;20077;-67
2022/03/14 02:15:49;;;;;;;17.80;3.20;;;25.90;15.10;;;;;;5073527;28;20438;-65
2022/03/14 02:18:15;;;;;;;18.83;3.33;;;25.80;15.10;;;;;;5090309;28;20072;-65
2022/03/14 02:20:42;;;;;;;14.57;2.47;;;25.80;15.30;;;;;;5083326;28;20073;-66
2022/03/14 02:23:08;;;;;;;12.27;2.90;;;25.70;15.90;;;;;;5087838;28;20553;-65
2022/03/14 02:25:35;;;;;;;16.08;3.13;;;25.60;15.60;;;;;;5082852;28;20469;-67
2022/03/14 02:28:02;;;;;;;16.10;3.03;;;25.60;15.70;;;;;;5085231;28;20097;-66
2022/03/14 02:30:29;;;;;;;18.48;3.70;;;25.50;15.80;;;;;;5087042;28;20541;-66
2022/03/14 02:33:01;;;;;;;18.95;4.22;;;25.50;16.00;;;;;;5085746;28;20080;-69
2022/03/14 02:35:28;;;;;;;13.57;3.40;;;25.40;16.10;;;;;;5083862;28;20068;-67
2022/03/14 02:37:55;;;;;;;18.30;3.33;;;25.30;16.30;;;;;;5087779;28;20083;-65
2022/03/14 02:40:21;;;;;;;11.18;3.00;;;25.30;16.40;;;;;;5071821;28;20077;-68
2022/03/14 02:42:47;;;;;;;21.75;3.45;;;25.20;16.60;;;;;;5072735;28;20085;-68
2022/03/14 02:45:14;;;;;;;13.15;3.30;;;25.10;16.80;;;;;;5090626;28;20182;-68
2022/03/14 02:47:41;;;;;;;12.32;3.45;;;25.00;17.00;;;;;;5055745;28;20088;-67
2022/03/14 02:50:07;;;;;;;11.43;3.47;;;24.90;17.30;;;;;;5085869;28;20069;-66
2022/03/14 02:52:34;;;;;;;14.23;3.40;;;24.90;17.50;;;;;;5070466;28;20069;-65
2022/03/14 02:55:00;;;;;;;18.20;3.88;;;24.80;17.60;;;;;;5085413;28;20068;-66
2022/03/14 02:57:28;;;;;;;10.93;4.30;;;24.70;17.90;;;;;;5088360;28;20079;-68
2022/03/14 02:59:56;;;;;;;14.18;3.30;;;24.60;18.00;;;;;;5085406;28;20072;-66
2022/03/14 03:02:23;;;;;;;13.93;3.38;;;24.60;18.20;;;;;;5085025;28;20175;-65
2022/03/14 03:04:50;;;;;;;16.58;4.10;;;24.50;18.20;;;;;;5083697;28;20087;-66
2022/03/14 03:07:20;;;;;;;9.18;4.03;;;24.40;18.70;;;;;;5084883;28;20530;-67
2022/03/14 03:09:46;;;;;;;14.80;3.80;;;24.30;18.60;;;;;;5079624;28;20088;-68
2022/03/14 03:12:14;;;;;;;11.75;3.65;;;24.20;18.60;;;;;;5084642;28;20067;-67
2022/03/14 03:14:41;;;;;;;18.42;3.75;;;24.20;18.80;;;;;;5087451;28;20073;-69
2022/03/14 03:17:08;;;;;;;15.45;4.00;;;24.10;18.80;;;;;;5089497;28;20168;-67
2022/03/14 03:19:34;;;;;;;11.80;3.67;;;24.00;19.00;;;;;;5082376;28;20080;-66
2022/03/14 03:22:01;;;;;;;14.27;4.57;;;23.90;19.00;;;;;;5087858;28;20172;-67
2022/03/14 03:24:27;;;;;;;12.05;3.60;;;23.80;19.30;;;;;;5090315;28;20140;-69
2022/03/14 03:26:53;;;;;;;13.98;4.03;;;23.80;19.40;;;;;;5053474;28;20080;-67
2022/03/14 03:29:20;;;;;;;15.43;3.45;;;23.70;19.50;;;;;;5082576;28;20107;-65
2022/03/14 03:31:46;;;;;;;13.35;3.00;;;23.60;19.50;;;;;;5068737;28;20069;-70
2022/03/14 03:34:13;;;;;;;13.80;3.00;;;23.60;19.60;;;;;;5080793;28;20073;-71
2022/03/14 03:36:39;;;;;;;15.13;2.58;;;23.50;19.60;;;;;;5084742;28;20167;-67
2022/03/14 03:39:05;;;;;;;11.15;2.85;;;23.50;19.70;;;;;;5083977;28;20084;-67
2022/03/14 03:41:32;;;;;;;14.55;4.20;;;23.40;19.90;;;;;;5085735;28;20088;-69
2022/03/14 03:43:58;;;;;;;14.73;5.47;;;23.30;20.00;;;;;;5085428;28;20073;-67
2022/03/14 03:46:25;;;;;;;21.30;5.45;;;23.30;20.10;;;;;;5089934;28;20077;-70
2022/03/14 03:48:51;;;;;;;13.65;3.63;;;23.30;20.30;;;;;;5082193;28;20864;-68
2022/03/14 03:51:17;;;;;;;16.75;3.92;;;23.30;20.50;;;;;;5085712;28;20068;-67
2022/03/14 03:53:44;;;;;;;18.90;3.80;;;23.20;20.50;;;;;;5083513;28;20081;-67
2022/03/14 03:56:10;;;;;;;14.77;4.20;;;23.20;20.60;;;;;;5086340;28;20077;-68
2022/03/14 03:58:37;;;;;;;23.45;3.40;;;23.10;20.60;;;;;;5085131;28;20085;-66
2022/03/14 04:01:03;;;;;;;19.70;3.08;;;23.10;20.70;;;;;;5085534;28;20069;-66
2022/03/14 04:03:29;;;;;;;13.07;3.47;;;23.00;20.70;;;;;;5084896;28;20077;-65
2022/03/14 04:05:56;;;;;;;13.70;3.60;;;22.90;20.80;;;;;;5085705;28;20075;-66
2022/03/14 04:08:22;;;;;;;10.93;3.35;;;22.90;21.00;;;;;;5085362;28;20089;-67
2022/03/14 04:10:54;;;;;;;13.65;3.45;;;22.90;21.20;;;;;;5077067;28;20142;-67
2022/03/14 04:13:24;;;;;;;16.83;2.90;;;22.90;21.40;;;;;;5083275;28;20159;-68
2022/03/14 04:15:51;;;;;;;9.15;2.42;;;22.70;21.50;;;;;;5081672;28;20084;-66
2022/03/14 04:18:19;;;;;;;29.33;2.80;;;22.70;21.80;;;;;;5082451;28;20545;-66
2022/03/14 04:20:48;;;;;;;11.93;2.42;;;22.60;21.80;;;;;;5083669;28;20077;-66
2022/03/14 04:23:17;;;;;;;18.73;2.75;;;22.60;22.00;;;;;;5084774;28;20072;-65
2022/03/14 04:25:44;;;;;;;19.50;2.78;;;22.60;22.10;;;;;;5084113;28;20108;-66
2022/03/14 04:28:12;;;;;;;17.73;2.40;;;22.60;22.20;;;;;;5083109;28;20832;-66
2022/03/14 04:30:39;;;;;;;12.30;2.42;;;22.50;22.30;;;;;;5086310;28;20072;-66
2022/03/14 04:33:07;;;;;;;19.48;3.22;;;22.50;22.30;;;;;;5081740;28;20130;-67
2022/03/14 04:35:35;;;;;;;17.13;3.40;;;22.50;22.40;;;;;;5084424;28;20110;-67
2022/03/14 04:38:02;;;;;;;9.73;2.65;;;22.50;22.30;;;;;;5080955;28;20073;-67
2022/03/14 04:40:29;;;;;;;13.75;3.17;;;22.50;22.30;;;;;;5084100;28;20557;-68
2022/03/14 04:42:55;;;;;;;18.17;3.00;;;22.50;22.30;;;;;;5083655;28;20079;-67
2022/03/14 04:45:22;;;;;;;14.65;3.42;;;22.60;22.30;;;;;;5082803;28;20084;-66
2022/03/14 04:47:48;;;;;;;16.73;3.10;;;22.70;22.10;;;;;;5081436;28;20138;-65
2022/03/14 04:50:16;;;;;;;16.63;2.60;;;22.90;22.00;;;;;;5080083;28;20108;-66
2022/03/14 04:52:43;;;;;;;12.90;2.17;;;23.00;22.00;;;;;;5082228;28;20168;-65
2022/03/14 04:55:09;;;;;;;14.77;2.58;;;23.00;22.50;;;;;;5089104;28;20083;-66
2022/03/14 04:57:36;;;;;;;12.88;2.63;;;23.10;22.00;;;;;;5082713;28;20104;-66
2022/03/14 05:00:05;;;;;;;23.10;2.33;;;23.20;22.00;;;;;;5083960;28;20155;-67
2022/03/14 05:02:31;;;;;;;12.73;2.60;;;23.10;22.00;;;;;;5081826;28;20107;-64
2022/03/14 05:04:57;;;;;;;8.93;2.20;;;23.20;22.10;;;;;;5078320;28;20076;-65
2022/03/14 05:07:25;;;;;;;11.50;2.20;;;23.20;22.20;;;;;;5082605;28;20108;-64
2022/03/14 05:09:51;;;;;;;13.10;2.92;;;23.10;22.20;;;;;;5080263;28;20128;-66
2022/03/14 05:12:17;;;;;;;12.20;2.42;;;23.10;22.30;;;;;;5080707;28;20167;-66
2022/03/14 05:14:44;;;;;;;12.25;2.60;;;23.10;22.30;;;;;;5081991;28;20068;-64
2022/03/14 05:17:10;;;;;;;6.43;2.10;;;23.10;22.30;;;;;;5082329;28;20168;-66
2022/03/14 05:19:37;;;;;;;11.05;2.33;;;23.00;22.40;;;;;;5083138;28;20072;-65
2022/03/14 05:22:04;;;;;;;9.95;2.30;;;23.00;22.40;;;;;;5079889;28;20514;-66
2022/03/14 05:24:30;;;;;;;12.20;2.35;;;23.00;22.50;;;;;;5082559;28;20117;-65
2022/03/14 05:26:58;;;;;;;12.52;2.05;;;22.90;22.50;;;;;;5083545;28;20072;-66
2022/03/14 05:29:24;;;;;;;8.73;2.10;;;23.00;22.60;;;;;;5080536;28;20142;-65
2022/03/14 05:31:50;;;;;;;10.07;2.45;;;22.90;22.60;;;;;;5081675;28;20522;-65
2022/03/14 05:34:17;;;;;;;11.20;2.13;;;22.90;22.60;;;;;;5082820;28;20073;-65
2022/03/14 05:36:44;;;;;;;10.55;1.95;;;22.90;22.60;;;;;;5086673;28;20434;-66
2022/03/14 05:39:10;;;;;;;5.63;1.45;;;22.90;22.50;;;;;;5078311;28;20103;-65
2022/03/14 05:41:36;;;;;;;18.25;2.35;;;22.80;22.40;;;;;;5083749;28;20115;-67
2022/03/14 05:44:03;;;;;;;11.38;2.30;;;22.80;22.40;;;;;;5082354;28;20085;-65
2022/03/14 05:46:29;;;;;;;6.72;2.17;;;22.70;22.50;;;;;;5081666;28;20068;-65
2022/03/14 05:48:56;;;;;;;8.52;1.92;;;22.60;22.50;;;;;;5081764;28;20549;-66
2022/03/14 05:51:22;;;;;;;8.90;2.08;;;22.60;22.50;;;;;;5082768;28;20574;-65
2022/03/14 05:53:48;;;;;;;15.35;2.10;;;22.60;22.50;;;;;;5081539;28;20537;-65
2022/03/14 05:56:15;;;;;;;8.20;2.15;;;22.60;22.50;;;;;;5084083;28;20522;-64
2022/03/14 05:58:41;;;;;;;6.65;2.00;;;22.60;22.50;;;;;;5086158;28;20088;-66
2022/03/14 06:01:07;;;;;;;11.48;2.30;;;22.60;22.60;;;;;;5071446;28;20091;-66
2022/03/14 06:03:34;;;;;;;8.43;2.15;;;22.50;22.60;;;;;;5073004;28;20160;-66
2022/03/14 06:06:01;;;;;;;12.45;3.00;;;22.40;22.70;;;;;;5087427;28;20092;-64
2022/03/14 06:08:28;;;;;;;13.32;3.17;;;22.40;22.60;;;;;;5089142;28;20145;-68
2022/03/14 06:10:55;;;;;;;9.95;2.60;;;22.40;22.80;;;;;;5084927;28;20080;-67
2022/03/14 06:13:22;;;;;;;12.30;2.50;;;22.40;23.00;;;;;;5085739;28;20065;-67
2022/03/14 06:15:48;;;;;;;11.90;2.67;;;22.40;22.90;;;;;;5086845;28;20436;-67
2022/03/14 06:18:15;;;;;;;16.67;3.70;;;22.30;23.10;;;;;;5089182;28;20122;-66
2022/03/14 06:20:41;;;;;;;20.23;3.72;;;22.30;23.10;;;;;;5088636;28;20159;-66
2022/03/14 06:23:08;;;;;;;12.90;2.78;;;22.20;23.00;;;;;;5084407;28;20085;-67
2022/03/14 06:25:36;;;;;;;12.85;2.80;;;22.00;23.10;;;;;;5085676;28;20203;-68
2022/03/14 06:28:03;;;;;;;14.65;2.70;;;21.90;23.20;;;;;;5085380;28;20087;-66
2022/03/14 06:30:29;;;;;;;17.67;3.10;;;21.90;23.40;;;;;;5082993;28;20167;-70
2022/03/14 06:32:56;;;;;;;10.95;2.30;;;21.90;23.50;;;;;;5086694;28;20072;-65
2022/03/14 06:35:22;;;;;;;11.50;3.13;;;21.90;23.60;;;;;;5052718;28;20525;-66
2022/03/14 06:37:50;;;;;;;17.42;6.93;;;21.80;23.70;;;;;;5083794;28;20112;-66
2022/03/14 06:40:16;;;;;;;17.38;4.90;;;21.80;23.80;;;;;;5082477;28;20182;-69
2022/03/14 06:42:49;;;;;;;10.48;3.50;;;21.80;23.90;;;;;;5069071;28;20077;-68
2022/03/14 06:45:22;;;;;;;12.02;2.72;;;21.70;23.90;;;;;;5069204;28;20482;-67
2022/03/14 06:47:49;;;;;;;12.98;2.50;;;21.70;24.00;;;;;;5075235;28;20088;-69
2022/03/14 06:50:16;;;;;;;7.95;2.58;;;21.70;24.20;;;;;;5081531;28;20064;-68
2022/03/14 06:52:43;;;;;;;16.85;3.00;;;21.60;24.80;;;;;;5084264;28;20081;-68
2022/03/14 06:55:11;;;;;;;6.82;2.50;;;21.50;24.60;;;;;;5077395;28;20155;-69
2022/03/14 06:57:39;;;;;;;17.70;5.07;;;21.40;24.70;;;;;;5082629;28;20496;-68
2022/03/14 07:00:07;;;;;;;30.15;10.32;;;21.40;25.10;;;;;;5084323;28;20155;-68
2022/03/14 07:02:35;;;;;;;36.00;12.65;;;21.30;25.40;;;;;;5086765;28;20164;-67
2022/03/14 07:05:02;;;;;;;32.03;12.57;;;21.20;25.60;;;;;;5082498;28;20135;-68
2022/03/14 07:07:28;;;;;;;32.92;12.70;;;21.20;26.00;;;;;;5082542;28;20088;-68
2022/03/14 07:09:55;;;;;;;33.30;12.15;;;21.10;26.30;;;;;;5084658;28;20194;-67
2022/03/14 07:12:21;;;;;;;27.40;10.02;;;21.00;26.10;;;;;;5050156;28;20532;-68
2022/03/14 07:14:47;;;;;;;31.48;9.93;;;20.90;26.70;;;;;;5067141;28;20069;-67
2022/03/14 07:17:14;;;;;;;27.10;7.72;;;20.80;26.40;;;;;;5084010;28;20112;-67
2022/03/14 07:19:45;;;;;;;13.82;4.40;;;20.80;26.70;;;;;;5082395;28;20073;-69
2022/03/14 07:22:19;;;;;;;10.75;3.22;;;20.70;26.90;;;;;;5081987;28;20514;-69
2022/03/14 07:24:47;;;;;;;15.05;3.03;;;20.50;27.30;;;;;;5082472;28;20108;-69
2022/03/14 07:27:15;;;;;;;12.43;2.50;;;20.40;27.90;;;;;;5078228;28;20776;-68
2022/03/14 07:29:41;;;;;;;16.13;3.35;;;20.30;28.20;;;;;;5081416;28;20167;-67
2022/03/14 07:32:08;;;;;;;6.95;2.53;;;20.30;28.60;;;;;;5066626;28;20073;-67
2022/03/14 07:34:35;;;;;;;14.15;2.35;;;20.20;29.10;;;;;;5083605;28;20109;-67
2022/03/14 07:37:01;;;;;;;10.95;2.15;;;20.10;29.70;;;;;;5081383;28;20576;-66
2022/03/14 07:39:29;;;;;;;6.70;2.33;;;20.00;29.20;;;;;;5081904;28;20165;-67
2022/03/14 07:41:56;;;;;;;9.52;2.50;;;19.90;29.30;;;;;;5083485;28;20079;-68
2022/03/14 07:44:22;;;;;;;13.18;2.72;;;19.80;29.50;;;;;;5079696;28;20092;-68
2022/03/14 07:46:49;;;;;;;8.27;2.47;;;19.60;29.70;;;;;;5083367;28;20081;-68
2022/03/14 07:49:15;;;;;;;16.10;3.17;;;19.60;29.80;;;;;;5081803;28;20092;-68
2022/03/14 07:51:41;;;;;;;;;;;19.50;29.80;;;;;;5079390;28;20079;-68
2022/03/14 07:54:07;;;;;;;10.82;3.05;;;19.40;29.80;;;;;;5083615;28;20432;-68
2022/03/14 07:56:34;;;;;;;9.65;2.85;;;19.40;30.40;;;;;;5081787;28;20068;-68
2022/03/14 07:59:00;;;;;;;;;;;19.40;31.10;;;;;;5081335;28;20550;-65
2022/03/14 08:01:26;;;;;;;11.13;2.60;;;19.30;31.00;;;;;;5079336;28;19965;-68
2022/03/14 08:03:52;;;;;;;;;;;19.40;31.00;;;;;;5081387;28;20074;-67
2022/03/14 08:06:22;;;;;;;10.23;2.80;;;19.30;31.20;;;;;;5084353;28;19965;-68
2022/03/14 08:08:50;;;;;;;12.13;3.28;;;19.30;30.90;;;;;;5079984;28;20093;-67
2022/03/14 08:11:18;;;;;;;12.85;3.53;;;19.20;31.40;;;;;;5081295;28;20169;-68
2022/03/14 08:13:44;;;;;;;12.20;3.50;;;19.20;31.30;;;;;;5065532;28;20069;-67
2022/03/14 08:16:11;;;;;;;17.13;3.90;;;19.10;31.80;;;;;;5081721;28;20083;-67
2022/03/14 08:18:38;;;;;;;13.23;3.33;;;19.10;32.50;;;;;;5084518;28;20080;-66
2022/03/14 08:21:05;;;;;;;12.95;2.85;;;18.90;32.80;;;;;;5081564;28;20076;-66
2022/03/14 08:23:33;;;;;;;13.15;3.10;;;18.90;32.70;;;;;;5080100;28;20583;-66
2022/03/14 08:26:00;;;;;;;17.38;3.83;;;18.80;32.40;;;;;;5082322;28;20617;-67
2022/03/14 08:28:27;;;;;;;17.92;3.40;;;18.70;32.50;;;;;;5081550;28;20177;-68
2022/03/14 08:30:53;;;;;;;18.48;4.35;;;18.70;32.50;;;;;;5079115;28;20096;-67
2022/03/14 08:33:22;;;;;;;19.45;3.65;;;18.60;32.80;;;;;;5080546;28;20592;-68
2022/03/14 08:35:49;;;;;;;18.75;4.35;;;18.50;32.80;;;;;;5081075;28;20077;-68
2022/03/14 08:38:15;;;;;;;17.55;4.30;;;18.50;34.10;;;;;;5082997;28;20454;-68
2022/03/14 08:40:42;;;;;;;12.70;3.40;;;18.50;33.60;;;;;;5080515;28;20088;-67
2022/03/14 08:43:10;;;;;;;20.40;4.32;;;18.40;33.80;;;;;;5081852;28;20112;-66
2022/03/14 08:45:37;;;;;;;19.50;3.88;;;18.30;34.70;;;;;;5066524;28;20073;-65
2022/03/14 08:48:05;;;;;;;16.25;3.65;;;18.30;34.30;;;;;;5081095;28;20219;-66
2022/03/14 08:50:33;;;;;;;17.10;4.15;;;18.30;33.90;;;;;;5083347;28;20081;-65
2022/03/14 08:52:59;;;;;;;12.45;3.20;;;18.20;33.60;;;;;;5082811;28;20068;-65
2022/03/14 08:55:26;;;;;;;13.10;3.60;;;18.10;33.40;;;;;;5077315;28;20077;-67
2022/03/14 08:57:52;;;;;;;14.40;3.22;;;18.00;33.40;;;;;;5081112;28;20081;-67
2022/03/14 09:00:19;;;;;;;;;;;17.90;33.60;;;;;;5081623;28;20080;-68
2022/03/14 09:02:45;;;;;;;10.30;3.17;;;17.80;33.60;;;;;;5082923;28;19964;-67
2022/03/14 09:05:12;;;;;;;;;;;17.80;33.90;;;;;;5080095;28;20953;-66
2022/03/14 09:07:38;;;;;;;14.90;2.83;;;17.80;33.80;;;;;;5081357;28;20065;-67
2022/03/14 09:10:06;;;;;;;;;;;17.80;34.00;;;;;;5083439;28;20203;-67
2022/03/14 09:12:33;;;;;;;14.38;2.85;;;17.80;34.80;;;;;;5074646;28;20410;-66
2022/03/14 09:15:00;;;;;;;12.32;2.75;;;17.70;35.20;;;;;;5075713;28;20077;-67
2022/03/14 09:17:26;;;;;;;25.75;2.80;;;17.70;35.00;;;;;;5079158;28;20076;-67
2022/03/14 09:19:53;;;;;;;12.70;2.42;;;17.70;34.90;;;;;;5061836;28;20445;-68
2022/03/14 09:22:19;;;;;;;17.35;3.03;;;17.70;34.90;;;;;;5081682;28;20141;-68
2022/03/14 09:24:47;;;;;;;11.02;2.65;;;17.70;34.80;;;;;;5080444;28;20108;-69
2022/03/14 09:27:13;;;;;;;16.55;3.53;;;17.70;35.00;;;;;;5077736;28;20069;-67
2022/03/14 09:29:40;;;;;;;15.95;3.75;;;17.60;35.20;;;;;;5065287;28;20068;-67
2022/03/14 09:32:07;;;;;;;16.00;3.50;;;17.50;34.90;;;;;;5084700;28;20521;-67
2022/03/14 09:34:35;;;;;;;14.60;3.53;;;17.40;34.60;;;;;;5086017;28;20109;-67
2022/03/14 09:37:01;;;;;;;17.08;2.90;;;17.30;34.50;;;;;;5082579;28;20069;-67
2022/03/14 09:39:27;;;;;;;;;;;17.20;34.90;;;;;;5084187;28;20081;-68
2022/03/14 09:41:56;;;;;;;16.98;3.28;;;17.20;35.30;;;;;;5082408;28;20460;-67
2022/03/14 09:44:26;;;;;;;14.70;3.28;;;17.20;35.30;;;;;;5065000;28;20164;-67
2022/03/14 09:46:58;;;;;;;18.50;2.80;;;17.20;35.40;;;;;;5071742;28;20102;-67
2022/03/14 09:49:26;;;;;;;11.85;2.85;;;17.20;35.60;;;;;;5082669;28;20085;-67
2022/03/14 09:51:54;;;;;;;11.77;3.63;;;17.20;35.40;;;;;;5051336;28;20129;-66
2022/03/14 09:54:21;;;;;;;16.65;3.95;;;17.00;35.50;;;;;;5088187;28;20100;-67
2022/03/14 09:56:48;;;;;;;14.23;4.18;;;16.90;35.60;;;;;;5086881;28;20500;-67
2022/03/14 09:59:14;;;;;;;18.23;3.50;;;16.90;35.90;;;;;;5085499;28;20069;-68
2022/03/14 10:01:42;;;;;;;26.80;4.75;;;16.80;36.60;;;;;;5078405;28;20091;-67
2022/03/14 10:04:09;;;;;;;16.35;3.67;;;16.80;36.40;;;;;;5085221;28;20072;-64
2022/03/14 10:06:38;;;;;;;20.02;4.68;;;16.70;36.80;;;;;;5069302;28;20077;-65
2022/03/14 10:09:05;;;;;;;12.50;4.10;;;16.70;36.70;;;;;;5084389;28;20142;-66
2022/03/14 10:11:31;;;;;;;;;;;16.60;36.70;;;;;;5086049;28;20068;-66
2022/03/14 10:13:58;;;;;;;18.33;5.22;;;16.60;36.60;;;;;;5090041;28;20046;-65
2022/03/14 10:16:25;;;;;;;28.92;5.82;;;16.60;36.50;;;;;;5068318;28;20073;-65
2022/03/14 10:18:57;;;;;;;31.52;5.90;;;16.50;37.40;;;;;;5066311;28;20168;-66
2022/03/14 10:21:32;;;;;;;22.40;5.45;;;16.50;37.60;;;;;;5067177;28;20530;-64
2022/03/14 10:24:10;;;;;;;27.73;6.10;;;16.50;37.50;;;;;;5068905;28;20203;-65
2022/03/14 10:26:40;;;;;;;31.50;6.25;;;16.40;37.20;;;;;;5080053;28;20085;-65
2022/03/14 10:29:12;;;;;;;40.97;7.53;;;16.30;37.20;;;;;;5083224;28;20093;-65
2022/03/14 10:31:42;;;;;;;42.10;7.93;;;16.30;37.20;;;;;;5083772;28;20544;-66
2022/03/14 10:34:14;;;;;;;35.78;6.90;;;16.20;37.30;;;;;;5087613;28;20150;-66
2022/03/14 10:36:47;;;;;;;25.63;6.80;;;16.20;37.60;;;;;;5080661;28;20158;-65
2022/03/14 10:39:18;;;;;;;37.08;8.07;;;16.10;37.50;;;;;;5085364;28;20083;-67
2022/03/14 10:42:07;;;;;;;52.67;9.07;;;16.00;37.80;;;;;;5083528;28;20194;-66
2022/03/14 10:44:35;;;;;;;32.97;9.07;;;16.10;38.10;;;;;;5052237;28;20133;-66
2022/03/14 10:47:05;;;;;;;40.78;9.43;;;16.10;38.10;;;;;;5084499;28;20081;-66
2022/03/14 10:49:33;;;;;;;40.17;9.00;;;16.10;38.30;;;;;;5085718;28;20211;-67
2022/03/14 10:52:06;;;;;;;30.88;9.40;;;16.00;39.30;;;;;;5081462;28;20076;-67
2022/03/14 10:54:37;;;;;;;36.45;9.80;;;15.90;38.90;;;;;;5066923;28;20080;-66
2022/03/14 10:57:09;;;;;;;42.85;9.93;;;15.80;39.40;;;;;;5084105;28;20082;-66
2022/03/14 10:59:40;;;;;;;45.75;10.52;;;15.80;39.50;;;;;;5083047;28;20077;-68
2022/03/14 11:02:11;;;;;;;46.80;9.52;;;15.80;39.30;;;;;;5080957;28;20072;-67
2022/03/14 11:04:41;;;;;;;30.30;8.40;;;15.80;39.50;;;;;;5081179;28;20076;-67
2022/03/14 11:07:08;;;;;;;40.08;9.18;;;15.90;39.70;;;;;;5087949;28;20122;-66
2022/03/14 11:09:45;;;;;;;40.45;9.30;;;15.90;40.30;;;;;;5080124;28;20624;-66
2022/03/14 11:12:16;;;;;;;46.85;9.02;;;15.80;40.30;;;;;;5082674;28;20127;-65
2022/03/14 11:14:51;;;;;;;28.25;7.93;;;15.60;40.40;;;;;;5082243;28;20089;-65
2022/03/14 11:17:19;;;;;;;33.75;8.75;;;15.50;40.90;;;;;;5078152;28;20128;-64
2022/03/14 11:19:46;;;;;;;42.58;9.55;;;15.50;40.90;;;;;;5069965;28;20077;-64
2022/03/14 11:22:14;;;;;;;;;;;15.40;41.20;;;;;;5083657;28;20171;-64
2022/03/14 11:24:46;;;;;;;56.85;10.73;;;15.30;42.10;;;;;;5086906;28;20035;-65
2022/03/14 11:27:19;;;;;;;38.03;10.20;;;15.30;42.50;;;;;;5077924;28;20084;-66
2022/03/14 11:29:47;;;;;;;35.67;10.48;;;15.20;43.00;;;;;;5080910;28;20211;-64
2022/03/14 11:32:16;;;;;;;46.13;12.40;;;15.20;42.50;;;;;;5082708;28;20071;-65
2022/03/14 11:34:44;;;;;;;47.67;11.48;;;15.20;42.50;;;;;;5081013;28;20285;-65
2022/03/14 11:37:12;;;;;;;42.28;11.85;;;15.10;42.70;;;;;;5077509;28;20069;-64
2022/03/14 11:39:39;;;;;;;37.95;12.27;;;15.20;42.70;;;;;;5081843;28;20081;-65
2022/03/14 11:42:06;;;;;;;44.72;12.68;;;15.20;43.60;;;;;;5065824;28;20102;-66
2022/03/14 11:44:34;;;;;;;55.45;13.90;;;15.10;44.00;;;;;;5071560;28;20112;-66
2022/03/14 11:47:01;;;;;;;51.03;13.70;;;15.10;43.80;;;;;;5082222;28;20090;-65
2022/03/14 11:49:29;;;;;;;51.33;14.43;;;15.00;43.70;;;;;;5068227;28;20085;-66
2022/03/14 11:52:15;;;;;;;53.45;17.48;;;14.90;43.50;;;;;;5079382;28;20107;-66
2022/03/14 11:54:59;;;;;;;51.83;19.70;;;14.90;43.70;;;;;;5086411;28;20080;-65
2022/03/14 11:57:49;;;;;;;69.43;19.90;;;14.90;43.70;;;;;;5084835;28;20159;-65
2022/03/14 12:00:22;;;;;;;59.30;20.48;;;14.90;43.70;;;;;;5065016;28;20075;-65
2022/03/14 12:02:56;;;;;;;57.42;21.48;;;14.90;44.90;;;;;;5081685;28;20426;-66
2022/03/14 12:05:44;;;;;;;62.58;21.27;;;14.90;45.50;;;;;;5070465;28;20076;-65
2022/03/14 12:08:13;;;;;;;;;;;14.90;44.50;;;;;;5077291;28;20100;-65
2022/03/14 12:10:40;;;;;;;62.47;20.60;;;14.90;43.80;;;;;;5079675;28;20463;-67
2022/03/14 12:13:06;;;;;;;66.75;21.67;;;14.80;43.70;;;;;;5079772;28;20081;-65
2022/03/14 12:15:42;;;;;;;;;;;14.80;43.90;;;;;;5078849;28;20169;-65
2022/03/14 12:18:24;;;;;;;59.78;22.25;;;14.90;44.20;;;;;;5076805;28;19987;-64
2022/03/14 12:20:55;;;;;;;67.95;22.55;;;15.00;44.40;;;;;;5078802;28;20146;-65
2022/03/14 12:23:30;;;;;;;76.40;27.63;;;14.90;44.80;;;;;;5080909;28;20100;-66
2022/03/14 12:26:00;;;;;;;73.18;23.05;;;14.80;44.60;;;;;;5079905;28;20958;-66
2022/03/14 12:28:34;;;;;;;58.80;22.73;;;14.80;44.90;;;;;;5060384;28;20104;-67
2022/03/14 12:31:04;;;;;;;59.70;24.05;;;14.70;44.60;;;;;;5082150;28;20087;-65
2022/03/14 12:33:32;;;;;;;65.15;23.55;;;14.70;44.70;;;;;;5084806;28;20119;-66
2022/03/14 12:36:22;;;;;;;63.85;22.75;;;14.70;44.90;;;;;;5079205;28;20073;-64
2022/03/14 12:39:09;;;;;;;67.47;23.52;;;14.70;45.20;;;;;;5082206;28;20072;-64
2022/03/14 12:41:45;;;;;;;70.40;22.95;;;14.70;45.70;;;;;;5081769;28;20083;-66
2022/03/14 12:44:25;;;;;;;71.10;23.58;;;14.60;46.50;;;;;;5079350;28;20542;-65